sensor_id;sensor_type;location;lat;lon;timestamp;P1;durP1;ratioP1;P2;durP2;ratioP2
44147;SDS011;29810;55.848;37.368;2023-02-01T00:02:43;17.27;;;10.75;;
44147;SDS011;29810;55.848;37.368;2023-02-01T00:05:44;17.40;;;11.35;;
44147;SDS011;29810;55.848;37.368;2023-02-01T00:08:56;18.15;;;11.50;;
44147;SDS011;29810;55.848;37.368;2023-02-01T00:12:00;18.98;;;12.20;;
44147;SDS011;29810;55.848;37.368;2023-02-01T00:15:03;19.40;;;12.00;;
44147;SDS011;29810;55.848;37.368;2023-02-01T00:18:05;18.85;;;12.43;;
44147;SDS011;29810;55.848;37.368;2023-02-01T00:21:07;20.08;;;12.40;;
44147;SDS011;29810;55.848;37.368;2023-02-01T00:24:09;17.58;;;11.63;;
44147;SDS011;29810;55.848;37.368;2023-02-01T00:27:11;17.73;;;12.35;;
44147;SDS011;29810;55.848;37.368;2023-02-01T00:30:18;20.42;;;12.70;;
44147;SDS011;29810;55.848;37.368;2023-02-01T00:33:20;20.62;;;13.15;;
44147;SDS011;29810;55.848;37.368;2023-02-01T00:36:21;22.40;;;13.10;;
44147;SDS011;29810;55.848;37.368;2023-02-01T00:39:23;21.08;;;13.30;;
44147;SDS011;29810;55.848;37.368;2023-02-01T00:42:24;20.02;;;13.32;;
44147;SDS011;29810;55.848;37.368;2023-02-01T00:45:26;21.73;;;12.88;;
44147;SDS011;29810;55.848;37.368;2023-02-01T00:48:27;22.60;;;13.30;;
44147;SDS011;29810;55.848;37.368;2023-02-01T00:51:29;19.85;;;12.63;;
44147;SDS011;29810;55.848;37.368;2023-02-01T00:54:32;20.08;;;13.20;;
44147;SDS011;29810;55.848;37.368;2023-02-01T00:57:34;21.37;;;13.07;;
44147;SDS011;29810;55.848;37.368;2023-02-01T01:00:35;22.02;;;12.80;;
44147;SDS011;29810;55.848;37.368;2023-02-01T01:03:42;21.12;;;12.82;;
44147;SDS011;29810;55.848;37.368;2023-02-01T01:06:49;21.48;;;12.35;;
44147;SDS011;29810;55.848;37.368;2023-02-01T01:09:50;18.62;;;12.30;;
44147;SDS011;29810;55.848;37.368;2023-02-01T01:12:52;18.70;;;12.48;;
44147;SDS011;29810;55.848;37.368;2023-02-01T01:15:53;18.83;;;11.85;;
44147;SDS011;29810;55.848;37.368;2023-02-01T01:18:55;18.20;;;12.15;;
44147;SDS011;29810;55.848;37.368;2023-02-01T01:21:57;18.90;;;11.90;;
44147;SDS011;29810;55.848;37.368;2023-02-01T01:24:59;15.80;;;11.43;;
44147;SDS011;29810;55.848;37.368;2023-02-01T01:28:00;19.48;;;11.60;;
44147;SDS011;29810;55.848;37.368;2023-02-01T01:31:02;17.30;;;11.25;;
44147;SDS011;29810;55.848;37.368;2023-02-01T01:34:04;19.37;;;12.13;;
44147;SDS011;29810;55.848;37.368;2023-02-01T01:37:06;16.80;;;11.52;;
44147;SDS011;29810;55.848;37.368;2023-02-01T01:40:08;17.17;;;12.05;;
44147;SDS011;29810;55.848;37.368;2023-02-01T01:43:13;17.83;;;11.65;;
44147;SDS011;29810;55.848;37.368;2023-02-01T01:46:17;19.90;;;12.00;;
44147;SDS011;29810;55.848;37.368;2023-02-01T01:49:21;16.40;;;10.75;;
44147;SDS011;29810;55.848;37.368;2023-02-01T01:52:26;17.85;;;11.15;;
44147;SDS011;29810;55.848;37.368;2023-02-01T01:55:28;19.73;;;11.05;;
44147;SDS011;29810;55.848;37.368;2023-02-01T01:58:33;17.80;;;11.00;;
44147;SDS011;29810;55.848;37.368;2023-02-01T02:01:35;19.05;;;11.48;;
44147;SDS011;29810;55.848;37.368;2023-02-01T02:04:37;17.90;;;11.45;;
44147;SDS011;29810;55.848;37.368;2023-02-01T02:07:40;17.85;;;10.77;;
44147;SDS011;29810;55.848;37.368;2023-02-01T02:10:44;16.67;;;10.48;;
44147;SDS011;29810;55.848;37.368;2023-02-01T02:14:01;16.52;;;11.38;;
44147;SDS011;29810;55.848;37.368;2023-02-01T02:27:57;16.15;;;10.93;;
44147;SDS011;29810;55.848;37.368;2023-02-01T02:37:52;18.00;;;11.15;;
44147;SDS011;29810;55.848;37.368;2023-02-01T02:44:47;19.83;;;11.55;;
44147;SDS011;29810;55.848;37.368;2023-02-01T02:48:23;16.95;;;11.05;;
44147;SDS011;29810;55.848;37.368;2023-02-01T02:54:59;18.98;;;11.60;;
44147;SDS011;29810;55.848;37.368;2023-02-01T02:58:04;18.33;;;12.00;;
44147;SDS011;29810;55.848;37.368;2023-02-01T03:01:27;18.48;;;12.20;;
44147;SDS011;29810;55.848;37.368;2023-02-01T03:04:51;17.65;;;11.52;;
44147;SDS011;29810;55.848;37.368;2023-02-01T03:11:14;16.60;;;10.75;;
44147;SDS011;29810;55.848;37.368;2023-02-01T03:14:17;18.42;;;11.80;;
44147;SDS011;29810;55.848;37.368;2023-02-01T03:17:26;17.30;;;11.52;;
44147;SDS011;29810;55.848;37.368;2023-02-01T03:20:33;18.35;;;11.82;;
44147;SDS011;29810;55.848;37.368;2023-02-01T03:23:37;18.50;;;11.68;;
44147;SDS011;29810;55.848;37.368;2023-02-01T03:26:51;19.50;;;11.95;;
44147;SDS011;29810;55.848;37.368;2023-02-01T03:33:32;19.90;;;12.37;;
44147;SDS011;29810;55.848;37.368;2023-02-01T03:39:53;17.73;;;11.75;;
44147;SDS011;29810;55.848;37.368;2023-02-01T03:43:00;18.92;;;11.75;;
44147;SDS011;29810;55.848;37.368;2023-02-01T03:46:09;19.87;;;12.35;;
44147;SDS011;29810;55.848;37.368;2023-02-01T03:49:20;17.83;;;12.45;;
44147;SDS011;29810;55.848;37.368;2023-02-01T03:52:37;18.85;;;11.93;;
44147;SDS011;29810;55.848;37.368;2023-02-01T03:55:43;20.25;;;12.52;;
44147;SDS011;29810;55.848;37.368;2023-02-01T03:58:45;19.83;;;12.43;;
44147;SDS011;29810;55.848;37.368;2023-02-01T04:02:00;17.12;;;11.55;;
44147;SDS011;29810;55.848;37.368;2023-02-01T04:05:02;19.33;;;12.48;;
44147;SDS011;29810;55.848;37.368;2023-02-01T04:08:04;19.92;;;12.80;;
44147;SDS011;29810;55.848;37.368;2023-02-01T04:11:06;20.30;;;13.18;;
44147;SDS011;29810;55.848;37.368;2023-02-01T04:14:08;21.02;;;12.90;;
44147;SDS011;29810;55.848;37.368;2023-02-01T04:17:10;17.52;;;11.77;;
44147;SDS011;29810;55.848;37.368;2023-02-01T04:20:11;19.40;;;12.50;;
44147;SDS011;29810;55.848;37.368;2023-02-01T04:23:13;18.87;;;13.07;;
44147;SDS011;29810;55.848;37.368;2023-02-01T04:26:16;17.85;;;12.13;;
44147;SDS011;29810;55.848;37.368;2023-02-01T04:29:18;21.05;;;12.95;;
44147;SDS011;29810;55.848;37.368;2023-02-01T04:32:19;22.95;;;13.73;;
44147;SDS011;29810;55.848;37.368;2023-02-01T04:35:21;19.12;;;12.32;;
44147;SDS011;29810;55.848;37.368;2023-02-01T04:38:22;23.05;;;13.23;;
44147;SDS011;29810;55.848;37.368;2023-02-01T04:41:24;19.87;;;12.50;;
44147;SDS011;29810;55.848;37.368;2023-02-01T04:44:25;20.70;;;13.05;;
44147;SDS011;29810;55.848;37.368;2023-02-01T04:47:27;20.83;;;12.37;;
44147;SDS011;29810;55.848;37.368;2023-02-01T04:50:29;22.58;;;12.93;;
44147;SDS011;29810;55.848;37.368;2023-02-01T04:53:30;23.87;;;12.90;;
44147;SDS011;29810;55.848;37.368;2023-02-01T04:56:32;23.35;;;13.20;;
44147;SDS011;29810;55.848;37.368;2023-02-01T04:59:35;21.58;;;13.07;;
44147;SDS011;29810;55.848;37.368;2023-02-01T05:02:37;22.05;;;12.35;;
44147;SDS011;29810;55.848;37.368;2023-02-01T05:05:38;22.17;;;13.68;;
44147;SDS011;29810;55.848;37.368;2023-02-01T05:08:40;23.65;;;13.18;;
44147;SDS011;29810;55.848;37.368;2023-02-01T05:11:44;21.35;;;12.93;;
44147;SDS011;29810;55.848;37.368;2023-02-01T05:15:04;22.62;;;13.65;;
44147;SDS011;29810;55.848;37.368;2023-02-01T05:18:07;22.52;;;13.50;;
44147;SDS011;29810;55.848;37.368;2023-02-01T05:21:08;22.87;;;13.85;;
44147;SDS011;29810;55.848;37.368;2023-02-01T05:24:10;21.98;;;13.88;;
44147;SDS011;29810;55.848;37.368;2023-02-01T05:27:13;21.10;;;13.65;;
44147;SDS011;29810;55.848;37.368;2023-02-01T05:30:15;19.95;;;13.30;;
44147;SDS011;29810;55.848;37.368;2023-02-01T05:33:17;19.45;;;13.13;;
44147;SDS011;29810;55.848;37.368;2023-02-01T05:36:18;22.50;;;14.13;;
44147;SDS011;29810;55.848;37.368;2023-02-01T05:39:19;23.83;;;13.68;;
44147;SDS011;29810;55.848;37.368;2023-02-01T05:42:21;23.95;;;14.70;;
44147;SDS011;29810;55.848;37.368;2023-02-01T05:45:23;23.25;;;14.27;;
44147;SDS011;29810;55.848;37.368;2023-02-01T05:48:24;21.42;;;13.70;;
44147;SDS011;29810;55.848;37.368;2023-02-01T05:51:26;26.37;;;14.00;;
44147;SDS011;29810;55.848;37.368;2023-02-01T05:54:27;25.23;;;14.45;;
44147;SDS011;29810;55.848;37.368;2023-02-01T05:57:29;23.58;;;14.02;;
44147;SDS011;29810;55.848;37.368;2023-02-01T06:00:31;21.65;;;14.60;;
44147;SDS011;29810;55.848;37.368;2023-02-01T06:03:33;22.27;;;14.13;;
44147;SDS011;29810;55.848;37.368;2023-02-01T06:06:34;23.15;;;14.35;;
44147;SDS011;29810;55.848;37.368;2023-02-01T06:09:38;22.98;;;14.68;;
44147;SDS011;29810;55.848;37.368;2023-02-01T06:12:39;24.35;;;14.30;;
44147;SDS011;29810;55.848;37.368;2023-02-01T06:15:41;22.95;;;14.10;;
44147;SDS011;29810;55.848;37.368;2023-02-01T06:18:44;21.17;;;14.40;;
44147;SDS011;29810;55.848;37.368;2023-02-01T06:21:46;22.60;;;13.95;;
44147;SDS011;29810;55.848;37.368;2023-02-01T06:24:48;23.08;;;13.93;;
44147;SDS011;29810;55.848;37.368;2023-02-01T06:27:50;22.05;;;13.60;;
44147;SDS011;29810;55.848;37.368;2023-02-01T06:30:51;22.52;;;15.13;;
44147;SDS011;29810;55.848;37.368;2023-02-01T06:33:53;25.27;;;15.15;;
44147;SDS011;29810;55.848;37.368;2023-02-01T06:36:54;24.12;;;15.15;;
44147;SDS011;29810;55.848;37.368;2023-02-01T06:39:56;27.37;;;16.30;;
44147;SDS011;29810;55.848;37.368;2023-02-01T06:42:57;30.33;;;16.10;;
44147;SDS011;29810;55.848;37.368;2023-02-01T06:46:06;28.27;;;16.45;;
44147;SDS011;29810;55.848;37.368;2023-02-01T06:49:09;30.52;;;16.12;;
44147;SDS011;29810;55.848;37.368;2023-02-01T06:52:10;29.90;;;16.35;;
44147;SDS011;29810;55.848;37.368;2023-02-01T06:55:12;30.42;;;16.50;;
44147;SDS011;29810;55.848;37.368;2023-02-01T06:58:14;29.83;;;16.05;;
44147;SDS011;29810;55.848;37.368;2023-02-01T07:01:16;29.00;;;17.60;;
44147;SDS011;29810;55.848;37.368;2023-02-01T07:04:18;27.45;;;16.58;;
44147;SDS011;29810;55.848;37.368;2023-02-01T07:07:19;28.48;;;16.77;;
44147;SDS011;29810;55.848;37.368;2023-02-01T07:10:23;27.45;;;16.25;;
44147;SDS011;29810;55.848;37.368;2023-02-01T07:13:24;26.95;;;16.42;;
44147;SDS011;29810;55.848;37.368;2023-02-01T07:16:26;28.77;;;16.98;;
44147;SDS011;29810;55.848;37.368;2023-02-01T07:19:28;27.15;;;16.65;;
44147;SDS011;29810;55.848;37.368;2023-02-01T07:22:30;28.40;;;16.62;;
44147;SDS011;29810;55.848;37.368;2023-02-01T07:25:33;28.60;;;17.12;;
44147;SDS011;29810;55.848;37.368;2023-02-01T07:28:35;31.10;;;16.85;;
44147;SDS011;29810;55.848;37.368;2023-02-01T07:31:38;28.05;;;16.70;;
44147;SDS011;29810;55.848;37.368;2023-02-01T07:34:40;26.30;;;16.23;;
44147;SDS011;29810;55.848;37.368;2023-02-01T07:37:43;27.62;;;16.58;;
44147;SDS011;29810;55.848;37.368;2023-02-01T07:40:45;29.83;;;17.67;;
44147;SDS011;29810;55.848;37.368;2023-02-01T07:43:51;28.30;;;16.83;;
44147;SDS011;29810;55.848;37.368;2023-02-01T07:46:54;28.95;;;17.30;;
44147;SDS011;29810;55.848;37.368;2023-02-01T07:49:55;29.85;;;16.87;;
44147;SDS011;29810;55.848;37.368;2023-02-01T07:53:00;27.75;;;16.80;;
44147;SDS011;29810;55.848;37.368;2023-02-01T07:56:02;28.45;;;16.85;;
44147;SDS011;29810;55.848;37.368;2023-02-01T07:59:05;29.50;;;16.02;;
44147;SDS011;29810;55.848;37.368;2023-02-01T08:02:07;28.62;;;16.95;;
44147;SDS011;29810;55.848;37.368;2023-02-01T08:05:11;28.35;;;16.90;;
44147;SDS011;29810;55.848;37.368;2023-02-01T08:08:12;26.20;;;15.30;;
44147;SDS011;29810;55.848;37.368;2023-02-01T08:11:14;27.17;;;15.48;;
44147;SDS011;29810;55.848;37.368;2023-02-01T08:14:17;27.02;;;16.70;;
44147;SDS011;29810;55.848;37.368;2023-02-01T08:17:19;25.62;;;15.75;;
44147;SDS011;29810;55.848;37.368;2023-02-01T08:20:21;22.83;;;14.32;;
44147;SDS011;29810;55.848;37.368;2023-02-01T08:23:24;25.08;;;15.68;;
44147;SDS011;29810;55.848;37.368;2023-02-01T08:26:25;22.60;;;14.77;;
44147;SDS011;29810;55.848;37.368;2023-02-01T08:29:27;26.55;;;15.32;;
44147;SDS011;29810;55.848;37.368;2023-02-01T08:32:29;26.15;;;16.20;;
44147;SDS011;29810;55.848;37.368;2023-02-01T08:35:31;22.98;;;14.95;;
44147;SDS011;29810;55.848;37.368;2023-02-01T08:38:34;23.12;;;14.77;;
44147;SDS011;29810;55.848;37.368;2023-02-01T08:41:40;25.17;;;14.82;;
44147;SDS011;29810;55.848;37.368;2023-02-01T08:44:43;22.17;;;13.98;;
44147;SDS011;29810;55.848;37.368;2023-02-01T08:47:45;24.08;;;14.85;;
44147;SDS011;29810;55.848;37.368;2023-02-01T08:50:47;22.95;;;13.65;;
44147;SDS011;29810;55.848;37.368;2023-02-01T08:53:50;25.12;;;14.93;;
44147;SDS011;29810;55.848;37.368;2023-02-01T08:56:52;22.95;;;14.15;;
44147;SDS011;29810;55.848;37.368;2023-02-01T08:59:55;23.23;;;14.05;;
44147;SDS011;29810;55.848;37.368;2023-02-01T09:02:56;25.17;;;15.38;;
44147;SDS011;29810;55.848;37.368;2023-02-01T09:06:05;24.12;;;14.25;;
44147;SDS011;29810;55.848;37.368;2023-02-01T09:09:11;24.73;;;14.20;;
44147;SDS011;29810;55.848;37.368;2023-02-01T09:12:12;24.12;;;13.88;;
44147;SDS011;29810;55.848;37.368;2023-02-01T09:15:14;24.85;;;14.43;;
44147;SDS011;29810;55.848;37.368;2023-02-01T09:18:15;23.30;;;14.20;;
44147;SDS011;29810;55.848;37.368;2023-02-01T09:21:17;24.63;;;14.23;;
44147;SDS011;29810;55.848;37.368;2023-02-01T09:24:18;23.73;;;14.02;;
44147;SDS011;29810;55.848;37.368;2023-02-01T09:27:20;23.60;;;15.50;;
44147;SDS011;29810;55.848;37.368;2023-02-01T09:30:22;24.80;;;16.05;;
44147;SDS011;29810;55.848;37.368;2023-02-01T09:33:24;26.40;;;15.68;;
44147;SDS011;29810;55.848;37.368;2023-02-01T09:36:27;28.27;;;15.90;;
44147;SDS011;29810;55.848;37.368;2023-02-01T09:39:28;28.15;;;16.33;;
44147;SDS011;29810;55.848;37.368;2023-02-01T09:46:03;25.05;;;16.05;;
44147;SDS011;29810;55.848;37.368;2023-02-01T09:49:19;27.20;;;16.65;;
44147;SDS011;29810;55.848;37.368;2023-02-01T09:55:50;26.95;;;15.63;;
44147;SDS011;29810;55.848;37.368;2023-02-01T09:58:59;27.00;;;16.98;;
44147;SDS011;29810;55.848;37.368;2023-02-01T10:02:19;27.30;;;16.75;;
44147;SDS011;29810;55.848;37.368;2023-02-01T10:05:33;28.33;;;16.77;;
44147;SDS011;29810;55.848;37.368;2023-02-01T10:15:30;28.42;;;16.98;;
44147;SDS011;29810;55.848;37.368;2023-02-01T10:21:58;29.37;;;16.37;;
44147;SDS011;29810;55.848;37.368;2023-02-01T10:25:05;25.62;;;16.27;;
44147;SDS011;29810;55.848;37.368;2023-02-01T10:28:15;26.67;;;16.90;;
44147;SDS011;29810;55.848;37.368;2023-02-01T10:31:18;26.48;;;15.73;;
44147;SDS011;29810;55.848;37.368;2023-02-01T10:34:26;28.77;;;17.62;;
44147;SDS011;29810;55.848;37.368;2023-02-01T10:37:30;23.77;;;15.65;;
44147;SDS011;29810;55.848;37.368;2023-02-01T10:40:33;24.98;;;16.33;;
44147;SDS011;29810;55.848;37.368;2023-02-01T10:43:37;25.60;;;16.52;;
44147;SDS011;29810;55.848;37.368;2023-02-01T10:46:40;23.60;;;15.15;;
44147;SDS011;29810;55.848;37.368;2023-02-01T10:53:07;24.27;;;15.68;;
44147;SDS011;29810;55.848;37.368;2023-02-01T10:56:12;23.92;;;14.95;;
44147;SDS011;29810;55.848;37.368;2023-02-01T10:59:23;23.33;;;15.43;;
44147;SDS011;29810;55.848;37.368;2023-02-01T11:02:27;25.65;;;16.02;;
44147;SDS011;29810;55.848;37.368;2023-02-01T11:05:42;22.98;;;14.15;;
44147;SDS011;29810;55.848;37.368;2023-02-01T11:08:50;21.55;;;14.35;;
44147;SDS011;29810;55.848;37.368;2023-02-01T11:14:58;21.55;;;14.77;;
44147;SDS011;29810;55.848;37.368;2023-02-01T11:18:18;20.88;;;14.23;;
44147;SDS011;29810;55.848;37.368;2023-02-01T11:21:21;22.37;;;15.00;;
44147;SDS011;29810;55.848;37.368;2023-02-01T11:24:25;20.45;;;14.80;;
44147;SDS011;29810;55.848;37.368;2023-02-01T11:27:34;22.70;;;15.77;;
44147;SDS011;29810;55.848;37.368;2023-02-01T11:30:38;24.23;;;15.82;;
44147;SDS011;29810;55.848;37.368;2023-02-01T11:33:50;21.83;;;15.50;;
44147;SDS011;29810;55.848;37.368;2023-02-01T11:36:59;23.05;;;16.05;;
44147;SDS011;29810;55.848;37.368;2023-02-01T11:43:22;20.67;;;14.57;;
44147;SDS011;29810;55.848;37.368;2023-02-01T11:46:29;20.90;;;14.70;;
44147;SDS011;29810;55.848;37.368;2023-02-01T11:49:33;21.73;;;15.38;;
44147;SDS011;29810;55.848;37.368;2023-02-01T12:07:12;22.98;;;15.27;;
44147;SDS011;29810;55.848;37.368;2023-02-01T12:23:05;22.23;;;15.57;;
44147;SDS011;29810;55.848;37.368;2023-02-01T12:32:33;24.65;;;16.67;;
44147;SDS011;29810;55.848;37.368;2023-02-01T12:45:21;21.75;;;15.88;;
44147;SDS011;29810;55.848;37.368;2023-02-01T12:48:32;23.65;;;16.52;;
44147;SDS011;29810;55.848;37.368;2023-02-01T12:51:40;27.77;;;17.65;;
44147;SDS011;29810;55.848;37.368;2023-02-01T12:54:50;24.70;;;17.42;;
44147;SDS011;29810;55.848;37.368;2023-02-01T12:58:12;27.73;;;16.15;;
44147;SDS011;29810;55.848;37.368;2023-02-01T13:01:21;24.60;;;16.20;;
44147;SDS011;29810;55.848;37.368;2023-02-01T13:04:55;23.33;;;16.42;;
44147;SDS011;29810;55.848;37.368;2023-02-01T13:08:06;22.55;;;15.27;;
44147;SDS011;29810;55.848;37.368;2023-02-01T13:11:23;24.80;;;16.33;;
44147;SDS011;29810;55.848;37.368;2023-02-01T13:14:32;23.00;;;15.30;;
44147;SDS011;29810;55.848;37.368;2023-02-01T13:17:47;22.20;;;15.18;;
44147;SDS011;29810;55.848;37.368;2023-02-01T13:20:59;23.50;;;14.98;;
44147;SDS011;29810;55.848;37.368;2023-02-01T13:24:13;21.95;;;14.98;;
44147;SDS011;29810;55.848;37.368;2023-02-01T13:27:26;23.48;;;14.73;;
44147;SDS011;29810;55.848;37.368;2023-02-01T13:38:23;20.90;;;14.13;;
44147;SDS011;29810;55.848;37.368;2023-02-01T13:44:05;20.00;;;12.80;;
44147;SDS011;29810;55.848;37.368;2023-02-01T13:47:25;20.52;;;14.05;;
44147;SDS011;29810;55.848;37.368;2023-02-01T13:50:31;20.55;;;13.93;;
44147;SDS011;29810;55.848;37.368;2023-02-01T13:53:48;20.33;;;13.93;;
44147;SDS011;29810;55.848;37.368;2023-02-01T13:56:50;23.15;;;14.20;;
44147;SDS011;29810;55.848;37.368;2023-02-01T13:59:52;21.73;;;13.52;;
44147;SDS011;29810;55.848;37.368;2023-02-01T14:06:01;20.00;;;12.98;;
44147;SDS011;29810;55.848;37.368;2023-02-01T14:16:33;18.85;;;12.65;;
44147;SDS011;29810;55.848;37.368;2023-02-01T14:19:36;20.02;;;13.00;;
44147;SDS011;29810;55.848;37.368;2023-02-01T14:22:38;17.50;;;12.02;;
44147;SDS011;29810;55.848;37.368;2023-02-01T14:25:40;20.42;;;12.27;;
44147;SDS011;29810;55.848;37.368;2023-02-01T14:28:47;19.08;;;12.23;;
44147;SDS011;29810;55.848;37.368;2023-02-01T14:35:06;20.50;;;12.65;;
44147;SDS011;29810;55.848;37.368;2023-02-01T14:38:18;18.12;;;12.35;;
44147;SDS011;29810;55.848;37.368;2023-02-01T14:41:30;22.30;;;13.23;;
44147;SDS011;29810;55.848;37.368;2023-02-01T14:44:37;19.33;;;12.48;;
44147;SDS011;29810;55.848;37.368;2023-02-01T14:47:38;20.45;;;12.32;;
44147;SDS011;29810;55.848;37.368;2023-02-01T14:50:46;19.33;;;12.75;;
44147;SDS011;29810;55.848;37.368;2023-02-01T14:53:49;18.50;;;12.40;;
44147;SDS011;29810;55.848;37.368;2023-02-01T14:56:52;22.77;;;12.70;;
44147;SDS011;29810;55.848;37.368;2023-02-01T14:59:59;19.73;;;13.32;;
44147;SDS011;29810;55.848;37.368;2023-02-01T15:06:56;22.05;;;13.05;;
44147;SDS011;29810;55.848;37.368;2023-02-01T15:10:05;17.98;;;12.07;;
44147;SDS011;29810;55.848;37.368;2023-02-01T15:13:21;19.12;;;12.32;;
44147;SDS011;29810;55.848;37.368;2023-02-01T15:16:27;17.60;;;11.98;;
44147;SDS011;29810;55.848;37.368;2023-02-01T15:19:29;18.12;;;12.40;;
44147;SDS011;29810;55.848;37.368;2023-02-01T15:22:34;18.10;;;12.30;;
44147;SDS011;29810;55.848;37.368;2023-02-01T15:25:37;19.85;;;12.35;;
44147;SDS011;29810;55.848;37.368;2023-02-01T15:28:39;17.85;;;12.05;;
44147;SDS011;29810;55.848;37.368;2023-02-01T15:31:48;19.58;;;12.05;;
44147;SDS011;29810;55.848;37.368;2023-02-01T15:34:52;19.10;;;11.45;;
44147;SDS011;29810;55.848;37.368;2023-02-01T15:38:17;17.50;;;11.82;;
44147;SDS011;29810;55.848;37.368;2023-02-01T15:41:28;19.10;;;11.88;;
44147;SDS011;29810;55.848;37.368;2023-02-01T15:44:33;17.52;;;11.93;;
44147;SDS011;29810;55.848;37.368;2023-02-01T15:47:41;19.70;;;11.65;;
44147;SDS011;29810;55.848;37.368;2023-02-01T15:50:47;19.17;;;12.80;;
44147;SDS011;29810;55.848;37.368;2023-02-01T15:53:59;19.17;;;12.00;;
44147;SDS011;29810;55.848;37.368;2023-02-01T15:57:01;20.33;;;12.37;;
44147;SDS011;29810;55.848;37.368;2023-02-01T16:00:17;19.87;;;11.98;;
44147;SDS011;29810;55.848;37.368;2023-02-01T16:06:36;17.90;;;12.37;;
44147;SDS011;29810;55.848;37.368;2023-02-01T16:09:48;19.73;;;12.73;;
44147;SDS011;29810;55.848;37.368;2023-02-01T16:12:55;18.85;;;11.98;;
44147;SDS011;29810;55.848;37.368;2023-02-01T16:16:01;17.40;;;12.02;;
44147;SDS011;29810;55.848;37.368;2023-02-01T16:19:12;20.67;;;11.85;;
44147;SDS011;29810;55.848;37.368;2023-02-01T16:22:14;19.10;;;11.50;;
44147;SDS011;29810;55.848;37.368;2023-02-01T16:25:15;20.23;;;12.65;;
44147;SDS011;29810;55.848;37.368;2023-02-01T16:28:17;18.67;;;12.30;;
44147;SDS011;29810;55.848;37.368;2023-02-01T16:31:23;18.62;;;12.35;;
44147;SDS011;29810;55.848;37.368;2023-02-01T16:37:29;22.83;;;12.90;;
44147;SDS011;29810;55.848;37.368;2023-02-01T16:40:33;20.58;;;12.02;;
44147;SDS011;29810;55.848;37.368;2023-02-01T16:43:36;24.25;;;12.85;;
44147;SDS011;29810;55.848;37.368;2023-02-01T16:46:44;21.58;;;12.85;;
44147;SDS011;29810;55.848;37.368;2023-02-01T16:49:47;22.87;;;13.18;;
44147;SDS011;29810;55.848;37.368;2023-02-01T16:52:50;21.85;;;12.95;;
44147;SDS011;29810;55.848;37.368;2023-02-01T16:55:52;21.50;;;13.18;;
44147;SDS011;29810;55.848;37.368;2023-02-01T16:58:53;20.17;;;13.07;;
44147;SDS011;29810;55.848;37.368;2023-02-01T17:01:55;19.08;;;12.20;;
44147;SDS011;29810;55.848;37.368;2023-02-01T17:04:56;19.98;;;12.48;;
44147;SDS011;29810;55.848;37.368;2023-02-01T17:07:59;22.23;;;12.27;;
44147;SDS011;29810;55.848;37.368;2023-02-01T17:11:07;21.00;;;13.05;;
44147;SDS011;29810;55.848;37.368;2023-02-01T17:14:18;22.00;;;12.88;;
44147;SDS011;29810;55.848;37.368;2023-02-01T17:17:22;19.15;;;11.90;;
44147;SDS011;29810;55.848;37.368;2023-02-01T17:20:26;19.87;;;12.20;;
44147;SDS011;29810;55.848;37.368;2023-02-01T17:23:33;21.60;;;12.63;;
44147;SDS011;29810;55.848;37.368;2023-02-01T17:26:35;19.87;;;12.77;;
44147;SDS011;29810;55.848;37.368;2023-02-01T17:29:36;21.17;;;12.27;;
44147;SDS011;29810;55.848;37.368;2023-02-01T17:32:38;19.98;;;13.15;;
44147;SDS011;29810;55.848;37.368;2023-02-01T17:35:41;19.73;;;11.95;;
44147;SDS011;29810;55.848;37.368;2023-02-01T17:38:42;18.55;;;12.55;;
44147;SDS011;29810;55.848;37.368;2023-02-01T17:41:45;20.65;;;12.50;;
44147;SDS011;29810;55.848;37.368;2023-02-01T17:44:47;21.85;;;12.63;;
44147;SDS011;29810;55.848;37.368;2023-02-01T17:47:51;19.33;;;12.10;;
44147;SDS011;29810;55.848;37.368;2023-02-01T17:50:52;21.33;;;13.70;;
44147;SDS011;29810;55.848;37.368;2023-02-01T17:53:59;21.12;;;12.95;;
44147;SDS011;29810;55.848;37.368;2023-02-01T17:57:01;20.05;;;12.00;;
44147;SDS011;29810;55.848;37.368;2023-02-01T18:00:03;19.12;;;12.63;;
44147;SDS011;29810;55.848;37.368;2023-02-01T18:03:05;23.05;;;12.32;;
44147;SDS011;29810;55.848;37.368;2023-02-01T18:06:15;20.02;;;12.30;;
44147;SDS011;29810;55.848;37.368;2023-02-01T18:09:18;20.10;;;12.18;;
44147;SDS011;29810;55.848;37.368;2023-02-01T18:12:21;19.35;;;11.70;;
44147;SDS011;29810;55.848;37.368;2023-02-01T18:15:26;19.02;;;11.80;;
44147;SDS011;29810;55.848;37.368;2023-02-01T18:18:30;19.73;;;13.02;;
44147;SDS011;29810;55.848;37.368;2023-02-01T18:21:36;18.98;;;11.57;;
44147;SDS011;29810;55.848;37.368;2023-02-01T18:27:41;19.42;;;11.15;;
44147;SDS011;29810;55.848;37.368;2023-02-01T18:30:44;19.08;;;11.65;;
44147;SDS011;29810;55.848;37.368;2023-02-01T18:33:53;18.60;;;12.02;;
44147;SDS011;29810;55.848;37.368;2023-02-01T18:36:58;19.42;;;10.90;;
44147;SDS011;29810;55.848;37.368;2023-02-01T18:40:00;18.62;;;11.65;;
44147;SDS011;29810;55.848;37.368;2023-02-01T18:43:04;17.75;;;11.63;;
44147;SDS011;29810;55.848;37.368;2023-02-01T18:46:09;18.15;;;11.52;;
44147;SDS011;29810;55.848;37.368;2023-02-01T18:49:11;17.00;;;11.05;;
44147;SDS011;29810;55.848;37.368;2023-02-01T18:52:18;14.98;;;10.15;;
44147;SDS011;29810;55.848;37.368;2023-02-01T18:55:19;15.93;;;10.10;;
44147;SDS011;29810;55.848;37.368;2023-02-01T19:01:52;15.88;;;10.13;;
44147;SDS011;29810;55.848;37.368;2023-02-01T19:04:54;17.05;;;10.77;;
44147;SDS011;29810;55.848;37.368;2023-02-01T19:07:55;16.80;;;10.75;;
44147;SDS011;29810;55.848;37.368;2023-02-01T19:10:57;16.10;;;10.68;;
44147;SDS011;29810;55.848;37.368;2023-02-01T19:14:00;16.42;;;11.05;;
44147;SDS011;29810;55.848;37.368;2023-02-01T19:17:02;17.70;;;11.27;;
44147;SDS011;29810;55.848;37.368;2023-02-01T19:20:03;15.57;;;10.65;;
44147;SDS011;29810;55.848;37.368;2023-02-01T19:23:06;16.73;;;11.18;;
44147;SDS011;29810;55.848;37.368;2023-02-01T19:26:11;14.57;;;10.03;;
44147;SDS011;29810;55.848;37.368;2023-02-01T19:29:14;15.80;;;10.43;;
44147;SDS011;29810;55.848;37.368;2023-02-01T19:32:16;16.42;;;10.85;;
44147;SDS011;29810;55.848;37.368;2023-02-01T19:35:21;19.08;;;11.77;;
44147;SDS011;29810;55.848;37.368;2023-02-01T19:38:23;16.15;;;10.63;;
44147;SDS011;29810;55.848;37.368;2023-02-01T19:41:25;16.80;;;10.98;;
44147;SDS011;29810;55.848;37.368;2023-02-01T19:44:26;16.15;;;11.15;;
44147;SDS011;29810;55.848;37.368;2023-02-01T19:47:28;17.77;;;11.10;;
44147;SDS011;29810;55.848;37.368;2023-02-01T19:50:29;16.77;;;11.85;;
44147;SDS011;29810;55.848;37.368;2023-02-01T19:53:31;16.58;;;11.07;;
44147;SDS011;29810;55.848;37.368;2023-02-01T19:56:33;17.73;;;11.40;;
44147;SDS011;29810;55.848;37.368;2023-02-01T19:59:35;17.02;;;11.52;;
44147;SDS011;29810;55.848;37.368;2023-02-01T20:02:37;17.12;;;12.00;;
44147;SDS011;29810;55.848;37.368;2023-02-01T20:05:40;15.70;;;10.88;;
44147;SDS011;29810;55.848;37.368;2023-02-01T20:08:42;17.42;;;11.45;;
44147;SDS011;29810;55.848;37.368;2023-02-01T20:11:43;19.20;;;12.32;;